Time;durP1;ratioP1;P1;durP2;ratioP2;P2;SDS_P1;SDS_P2;PMS_P1;PMS_P2;Temp;Humidity;BMP_temperature;BMP_pressure;BME280_temperature;BME280_humidity;BME280_pressure;Samples;Min_cycle;Max_cycle;Signal;HPM_P1;HPM_P2
2022/05/05 00:01:00;;;;;;;4.82;4.07;;;17.30;96.70;;;;;;5049370;28;20044;-84
2022/05/05 00:03:29;;;;;;;6.03;4.07;;;17.30;96.70;;;;;;5064836;28;20049;-85
2022/05/05 00:05:57;;;;;;;4.97;4.07;;;17.30;96.70;;;;;;5060447;28;20068;-85
2022/05/05 00:08:25;;;;;;;5.10;4.30;;;17.20;96.70;;;;;;5055269;28;20049;-85
2022/05/05 00:16:30;;;;;;;4.03;3.38;;;17.10;96.70;;;;;;5058932;28;20095;-85
2022/05/05 00:18:59;;;;;;;4.68;3.70;;;17.00;96.70;;;;;;5049439;28;20486;-86
2022/05/05 00:21:27;;;;;;;3.83;3.28;;;17.00;96.70;;;;;;5065910;28;20040;-86
2022/05/05 00:23:55;;;;;;;3.85;3.47;;;16.90;96.70;;;;;;5060421;28;20163;-85
2022/05/05 00:26:23;;;;;;;4.22;3.83;;;16.80;96.70;;;;;;5059159;28;20050;-84
2022/05/05 00:28:51;;;;;;;5.10;3.63;;;16.70;96.70;;;;;;5047669;28;20045;-85
2022/05/05 00:31:20;;;;;;;5.40;4.20;;;16.70;96.70;;;;;;5051089;28;20397;-85
2022/05/05 00:33:50;;;;;;;4.47;3.70;;;16.80;96.70;;;;;;5046556;28;20660;-85
2022/05/05 00:36:18;;;;;;;5.20;4.70;;;16.80;96.70;;;;;;5066223;28;20142;-83
2022/05/05 00:38:46;;;;;;;3.92;3.50;;;16.80;96.70;;;;;;5058645;28;20071;-84
2022/05/05 00:41:14;;;;;;;4.20;3.80;;;16.70;96.70;;;;;;5065241;28;20497;-84
2022/05/05 00:43:43;;;;;;;5.15;4.28;;;16.70;96.70;;;;;;5062710;28;20052;-84
2022/05/05 00:46:11;;;;;;;5.05;4.43;;;16.60;96.70;;;;;;5047048;28;20135;-84
2022/05/05 00:48:42;;;;;;;4.70;4.30;;;16.60;96.70;;;;;;5056207;28;20115;-84
2022/05/05 00:51:13;;;;;;;5.30;4.80;;;16.50;96.70;;;;;;5065029;28;20041;-84
2022/05/05 00:53:41;;;;;;;5.03;4.50;;;16.50;96.70;;;;;;5050161;28;20048;-84
2022/05/05 00:56:13;;;;;;;6.18;4.32;;;16.50;96.70;;;;;;5050856;28;20051;-83
2022/05/05 00:58:43;;;;;;;6.57;4.10;;;16.50;96.70;;;;;;5060182;28;20140;-84
2022/05/05 01:01:14;;;;;;;5.60;4.25;;;16.50;96.70;;;;;;5063043;28;20040;-84
2022/05/05 01:03:43;;;;;;;5.03;4.18;;;16.50;96.70;;;;;;5048719;28;20063;-84
2022/05/05 01:06:16;;;;;;;5.72;3.78;;;16.40;96.70;;;;;;5066107;28;20119;-83
2022/05/05 01:08:46;;;;;;;5.50;4.03;;;16.40;96.70;;;;;;5053916;28;20040;-84
2022/05/05 01:11:14;;;;;;;4.68;4.22;;;16.40;96.70;;;;;;5065418;28;20049;-84
2022/05/05 01:13:43;;;;;;;5.80;3.60;;;16.40;96.70;;;;;;5057933;28;20040;-84
2022/05/05 01:16:12;;;;;;;4.20;3.80;;;16.40;96.70;;;;;;5039194;28;20117;-84
2022/05/05 01:18:40;;;;;;;5.20;4.57;;;16.40;96.70;;;;;;5053635;28;20046;-83
2022/05/05 01:21:10;;;;;;;4.65;3.80;;;16.30;96.70;;;;;;5054604;28;20049;-84
2022/05/05 01:23:40;;;;;;;4.90;4.40;;;16.30;96.70;;;;;;5046506;28;20056;-87
2022/05/05 01:28:57;;;;;;;5.32;4.65;;;16.20;96.70;;;;;;5051754;28;20067;-83
2022/05/05 01:31:25;;;;;;;5.93;4.45;;;16.30;96.70;;;;;;5052022;28;20041;-84
2022/05/05 01:33:53;;;;;;;5.45;4.82;;;16.30;96.70;;;;;;5053192;28;20083;-84
2022/05/05 01:36:21;;;;;;;5.40;4.30;;;16.30;96.70;;;;;;5057298;28;20114;-83
2022/05/05 01:38:53;;;;;;;5.35;4.80;;;16.40;96.70;;;;;;5057644;28;20048;-86
2022/05/05 01:41:21;;;;;;;6.72;4.32;;;16.30;96.70;;;;;;5059675;28;20051;-86
2022/05/05 01:43:49;;;;;;;8.15;4.38;;;16.20;96.70;;;;;;5063501;28;20052;-86
2022/05/05 01:46:18;;;;;;;4.40;4.00;;;16.20;96.70;;;;;;5039409;28;20053;-84
2022/05/05 01:48:46;;;;;;;4.03;3.65;;;16.20;96.70;;;;;;5060122;28;20102;-84
2022/05/05 01:51:14;;;;;;;4.90;3.58;;;16.10;96.70;;;;;;5055685;28;20056;-84
2022/05/05 01:53:42;;;;;;;4.47;4.07;;;16.00;96.70;;;;;;5057447;28;20047;-84
2022/05/05 01:56:12;;;;;;;4.90;4.00;;;16.00;96.70;;;;;;5062247;28;20119;-84
2022/05/05 01:58:44;;;;;;;4.57;4.10;;;16.00;96.70;;;;;;5062155;28;20095;-84
2022/05/05 02:01:13;;;;;;;4.82;4.32;;;16.00;96.70;;;;;;5066396;28;20164;-86
2022/05/05 02:03:41;;;;;;;4.63;3.97;;;15.80;96.70;;;;;;5049847;28;20048;-86
2022/05/05 02:06:09;;;;;;;5.30;4.60;;;15.70;96.70;;;;;;5061787;28;20068;-86
2022/05/05 02:08:37;;;;;;;5.05;4.55;;;15.70;96.70;;;;;;5064139;28;20048;-84
2022/05/05 02:11:05;;;;;;;4.63;4.20;;;15.70;96.70;;;;;;5058174;28;20040;-84
2022/05/05 02:13:36;;;;;;;4.07;3.67;;;15.80;96.70;;;;;;5046016;28;20659;-85
2022/05/05 02:16:05;;;;;;;4.50;4.10;;;15.70;96.70;;;;;;5041731;28;20041;-85
2022/05/05 02:18:33;;;;;;;6.72;3.80;;;15.70;96.70;;;;;;5053535;28;20041;-84
2022/05/05 02:21:01;;;;;;;4.43;3.90;;;15.70;96.70;;;;;;5046998;28;20060;-84
2022/05/05 02:23:29;;;;;;;4.35;3.95;;;15.70;96.70;;;;;;5046443;28;21316;-84
2022/05/05 02:25:57;;;;;;;4.05;3.75;;;15.70;96.70;;;;;;5057157;28;20135;-84
2022/05/05 02:28:26;;;;;;;3.92;3.50;;;15.70;96.70;;;;;;5048593;28;20049;-84
2022/05/05 02:30:56;;;;;;;6.75;4.03;;;15.70;96.70;;;;;;5053408;28;20582;-84
2022/05/05 02:33:24;;;;;;;5.13;4.20;;;15.60;96.70;;;;;;5069464;28;20127;-84
2022/05/05 02:38:46;;;;;;;3.78;3.47;;;15.50;96.70;;;;;;5068437;28;20060;-84
2022/05/05 02:41:14;;;;;;;4.35;3.58;;;15.50;96.70;;;;;;5048002;28;20486;-84
2022/05/05 02:43:42;;;;;;;4.57;3.22;;;15.50;96.70;;;;;;5067983;28;20498;-84
2022/05/05 02:46:12;;;;;;;4.72;3.47;;;15.40;96.70;;;;;;5047457;28;20044;-84
2022/05/05 02:48:40;;;;;;;4.43;3.60;;;15.30;96.70;;;;;;5069296;28;20127;-84
2022/05/05 02:51:08;;;;;;;4.50;3.38;;;15.20;96.70;;;;;;5064085;28;20037;-84
2022/05/05 02:56:23;;;;;;;3.60;3.15;;;15.20;96.70;;;;;;5067661;28;20074;-84
2022/05/05 02:58:53;;;;;;;5.18;3.20;;;15.30;96.70;;;;;;5069617;28;20101;-84
2022/05/05 03:01:23;;;;;;;5.55;3.95;;;15.30;96.70;;;;;;5052498;28;20049;-84
2022/05/05 03:03:51;;;;;;;3.97;3.50;;;15.20;96.70;;;;;;5069871;28;20036;-84
2022/05/05 03:06:20;;;;;;;6.13;4.25;;;15.10;96.70;;;;;;5068689;28;20128;-84
2022/05/05 03:08:48;;;;;;;4.25;3.85;;;15.20;96.70;;;;;;5068221;28;20051;-84
2022/05/05 03:11:16;;;;;;;4.82;4.32;;;15.10;96.70;;;;;;5042570;28;20053;-84
2022/05/05 03:13:44;;;;;;;5.70;5.20;;;15.10;96.70;;;;;;5070254;28;20051;-84
2022/05/05 03:16:12;;;;;;;4.97;4.57;;;15.10;96.70;;;;;;5068428;28;20040;-83
2022/05/05 03:18:42;;;;;;;6.10;5.13;;;15.10;96.70;;;;;;5053080;28;20079;-85
2022/05/05 03:21:11;;;;;;;6.40;5.75;;;15.10;96.70;;;;;;5062659;28;20506;-84
2022/05/05 03:23:39;;;;;;;6.45;5.38;;;15.10;96.70;;;;;;5059757;28;20053;-84
2022/05/05 03:26:07;;;;;;;6.45;5.47;;;15.10;96.70;;;;;;5043665;28;20143;-84
2022/05/05 03:28:34;;;;;;;7.80;4.60;;;15.10;96.70;;;;;;5056555;28;20041;-84
2022/05/05 03:31:03;;;;;;;4.97;4.10;;;15.00;96.70;;;;;;5051829;28;20037;-83
2022/05/05 03:33:32;;;;;;;4.90;3.90;;;14.70;96.70;;;;;;5067919;28;20041;-84
2022/05/05 03:36:01;;;;;;;5.65;4.15;;;14.60;96.70;;;;;;5064562;28;20538;-84
2022/05/05 03:38:29;;;;;;;6.55;4.13;;;14.70;96.70;;;;;;5052502;28;20049;-85
2022/05/05 03:40:58;;;;;;;4.78;4.25;;;14.70;96.70;;;;;;5068416;28;20044;-84
2022/05/05 03:43:25;;;;;;;5.25;4.07;;;14.70;96.70;;;;;;5067594;28;20041;-84
2022/05/05 03:45:53;;;;;;;4.88;4.25;;;14.80;96.70;;;;;;5065669;28;20110;-84
2022/05/05 03:48:21;;;;;;;4.65;4.20;;;14.80;96.70;;;;;;5060750;28;20192;-84
2022/05/05 03:50:49;;;;;;;5.65;4.30;;;14.90;96.70;;;;;;5046321;28;20067;-84
2022/05/05 03:53:19;;;;;;;5.28;4.72;;;15.00;96.70;;;;;;5050548;28;20494;-84
2022/05/05 03:55:47;;;;;;;6.82;4.65;;;15.10;96.70;;;;;;5063320;28;20068;-84
2022/05/05 03:58:15;;;;;;;5.47;4.60;;;15.10;96.70;;;;;;5045975;28;20045;-84
2022/05/05 04:00:46;;;;;;;5.22;4.72;;;15.10;96.70;;;;;;5064629;28;20044;-84
2022/05/05 04:03:33;;;;;;;5.45;4.50;;;15.10;96.70;;;;;;5048324;28;20052;-84
2022/05/05 04:06:03;;;;;;;6.35;4.95;;;15.10;96.70;;;;;;5060214;28;20032;-84
2022/05/05 04:08:33;;;;;;;6.38;5.00;;;15.20;96.70;;;;;;5051352;28;20041;-84
2022/05/05 04:11:01;;;;;;;7.95;4.90;;;15.20;96.70;;;;;;5068196;28;20459;-84
2022/05/05 04:13:31;;;;;;;5.43;4.78;;;15.20;96.70;;;;;;5062281;28;20128;-84
2022/05/05 04:16:04;;;;;;;6.72;4.53;;;15.20;96.70;;;;;;5068003;28;20044;-83
2022/05/05 04:18:33;;;;;;;4.88;4.28;;;15.10;96.70;;;;;;5043153;28;20070;-84
2022/05/05 04:21:02;;;;;;;4.60;4.20;;;14.90;96.70;;;;;;5055289;28;20049;-83
2022/05/05 04:23:30;;;;;;;4.63;4.22;;;14.90;96.70;;;;;;5067690;28;20045;-84
2022/05/05 04:26:12;;;;;;;5.05;4.55;;;14.80;96.70;;;;;;5053669;28;20894;-84
2022/05/05 04:28:41;;;;;;;6.32;4.55;;;14.80;96.70;;;;;;5065365;28;20048;-84
2022/05/05 04:31:11;;;;;;;4.70;4.00;;;14.70;96.70;;;;;;5051203;28;20047;-84
2022/05/05 04:33:43;;;;;;;4.82;4.35;;;14.70;96.70;;;;;;5060503;28;20045;-84
2022/05/05 04:36:12;;;;;;;5.18;4.32;;;14.70;96.70;;;;;;5050654;28;20048;-86
2022/05/05 04:38:41;;;;;;;8.10;3.97;;;14.80;96.70;;;;;;5047784;28;20099;-86
2022/05/05 04:41:10;;;;;;;4.20;3.80;;;14.70;96.70;;;;;;5048745;28;20080;-86
2022/05/05 04:43:38;;;;;;;4.70;3.88;;;14.70;96.70;;;;;;5067749;28;20052;-86
2022/05/05 04:46:07;;;;;;;5.07;4.43;;;14.80;96.70;;;;;;5061284;28;20056;-86
2022/05/05 04:48:35;;;;;;;4.15;3.72;;;14.90;96.70;;;;;;5058776;28;20051;-87
2022/05/05 04:51:03;;;;;;;6.15;4.22;;;14.90;96.70;;;;;;5050566;28;20049;-86
2022/05/05 04:53:31;;;;;;;4.80;4.38;;;14.80;96.70;;;;;;5059526;28;20072;-86
2022/05/05 04:55:59;;;;;;;5.10;4.60;;;14.80;96.70;;;;;;5047391;28;20041;-86
2022/05/05 04:58:32;;;;;;;6.63;4.70;;;14.80;96.70;;;;;;5058069;28;20057;-87
2022/05/05 05:01:00;;;;;;;6.20;4.78;;;14.70;96.70;;;;;;5056310;28;20139;-86
2022/05/05 05:03:36;;;;;;;5.15;4.47;;;14.70;96.70;;;;;;5042304;28;20311;-86
2022/05/05 05:06:06;;;;;;;8.23;4.82;;;14.80;96.70;;;;;;5048819;28;20052;-87
2022/05/05 05:08:34;;;;;;;5.57;4.93;;;14.90;96.70;;;;;;5067515;28;20044;-87
2022/05/05 05:11:02;;;;;;;5.68;4.53;;;14.90;96.70;;;;;;5050267;28;20143;-87
2022/05/05 05:13:32;;;;;;;7.72;4.35;;;15.00;96.70;;;;;;5061404;28;20052;-87
2022/05/05 05:16:00;;;;;;;5.68;4.18;;;14.90;96.70;;;;;;5064213;28;20117;-86
2022/05/05 05:18:28;;;;;;;7.47;4.85;;;15.00;96.70;;;;;;5053098;28;20071;-87
2022/05/05 05:20:56;;;;;;;6.38;4.10;;;14.90;96.70;;;;;;5060916;28;20063;-87
2022/05/05 05:23:24;;;;;;;7.38;5.80;;;14.90;96.70;;;;;;5064994;28;20067;-86
2022/05/05 05:25:52;;;;;;;6.13;4.28;;;15.00;96.70;;;;;;5063041;28;20390;-86
2022/05/05 05:28:20;;;;;;;6.07;4.70;;;15.00;96.70;;;;;;5066619;28;20067;-87
2022/05/05 05:30:51;;;;;;;7.13;4.82;;;14.90;96.70;;;;;;5061445;28;20052;-86
2022/05/05 05:33:20;;;;;;;6.90;5.68;;;15.00;96.70;;;;;;5058161;28;20045;-87
2022/05/05 05:35:48;;;;;;;9.43;7.05;;;15.00;96.70;;;;;;5059151;28;20094;-87
2022/05/05 05:38:21;;;;;;;9.75;7.32;;;15.00;96.70;;;;;;5048589;28;20044;-87
2022/05/05 05:40:49;;;;;;;20.13;9.02;;;15.10;96.70;;;;;;5045982;28;20055;-86
2022/05/05 05:43:17;;;;;;;8.18;7.22;;;15.00;96.70;;;;;;5067991;28;20064;-86
2022/05/05 05:45:46;;;;;;;9.70;6.82;;;15.10;96.70;;;;;;5065488;28;20050;-87
2022/05/05 05:48:15;;;;;;;11.68;7.47;;;15.20;96.70;;;;;;5062694;28;20045;-86
2022/05/05 05:50:44;;;;;;;10.57;7.30;;;15.20;96.70;;;;;;5044678;28;20535;-87
2022/05/05 05:53:12;;;;;;;10.10;6.75;;;15.20;96.70;;;;;;5059545;28;20053;-86
2022/05/05 05:55:40;;;;;;;16.05;8.23;;;15.30;96.70;;;;;;5062668;28;20048;-87
2022/05/05 05:58:08;;;;;;;10.18;7.30;;;15.30;96.70;;;;;;5046098;28;20136;-88
2022/05/05 06:00:38;;;;;;;10.65;6.72;;;15.30;96.70;;;;;;5066445;28;20072;-87
2022/05/05 06:05:55;;;;;;;11.52;7.30;;;15.30;96.70;;;;;;5068442;28;20603;-87
2022/05/05 06:08:23;;;;;;;8.32;7.47;;;15.30;96.70;;;;;;5070857;28;20048;-89
2022/05/05 06:10:51;;;;;;;11.50;7.30;;;15.30;96.70;;;;;;5050563;28;20052;-87
2022/05/05 06:13:23;;;;;;;8.02;6.30;;;15.40;96.70;;;;;;5047764;28;20037;-83
2022/05/05 06:15:53;;;;;;;7.43;6.38;;;15.50;96.70;;;;;;5060325;28;20040;-83
2022/05/05 06:18:22;;;;;;;10.38;6.97;;;15.50;96.70;;;;;;5058324;28;20068;-84
2022/05/05 06:20:50;;;;;;;6.68;5.90;;;15.50;96.70;;;;;;5060719;28;20048;-83
2022/05/05 06:23:19;;;;;;;7.75;6.65;;;15.60;96.70;;;;;;5046669;28;20048;-82
2022/05/05 06:25:48;;;;;;;11.10;6.57;;;15.60;96.70;;;;;;5052991;28;20439;-81
2022/05/05 06:28:16;;;;;;;11.30;6.18;;;15.70;96.70;;;;;;5049858;28;20049;-83
2022/05/05 06:30:44;;;;;;;9.23;5.90;;;15.70;96.70;;;;;;5064166;28;20063;-81
2022/05/05 06:33:13;;;;;;;8.10;6.40;;;15.80;96.70;;;;;;5065542;28;20517;-85
2022/05/05 06:35:41;;;;;;;7.95;6.03;;;15.80;96.70;;;;;;5069809;28;20040;-83
2022/05/05 06:38:09;;;;;;;9.60;6.47;;;15.90;96.70;;;;;;5069575;28;20048;-85
2022/05/05 06:40:40;;;;;;;8.30;6.35;;;15.90;96.70;;;;;;5068381;28;20040;-85
2022/05/05 06:43:09;;;;;;;8.90;6.90;;;15.90;96.70;;;;;;5068472;28;20080;-85
2022/05/05 06:45:37;;;;;;;8.00;6.28;;;15.90;96.70;;;;;;5050155;28;20064;-84
2022/05/05 06:48:06;;;;;;;9.00;6.90;;;15.90;96.70;;;;;;5037976;28;20049;-84
2022/05/05 06:50:34;;;;;;;7.78;6.95;;;15.90;96.70;;;;;;5069024;28;20577;-84
2022/05/05 06:53:03;;;;;;;10.27;7.68;;;15.80;96.70;;;;;;5061842;28;20110;-84
2022/05/05 06:55:31;;;;;;;7.57;6.78;;;15.90;96.70;;;;;;5069350;28;20044;-83
2022/05/05 06:58:01;;;;;;;7.93;6.95;;;16.00;96.70;;;;;;5062136;28;20135;-84
2022/05/05 07:01:51;;;;;;;7.35;6.32;;;16.10;96.70;;;;;;5064286;28;20040;-83
2022/05/05 07:03:18;;;;;;;6.75;5.97;;;16.10;96.70;;;;;;5065225;28;20045;-82
2022/05/05 07:05:46;;;;;;;10.23;6.65;;;16.10;96.70;;;;;;5068815;28;20048;-82
2022/05/05 07:08:14;;;;;;;7.47;6.57;;;16.20;96.70;;;;;;5054670;28;20049;-82
2022/05/05 07:10:55;;;;;;;7.72;6.55;;;16.10;96.70;;;;;;5068003;28;20434;-82
2022/05/05 07:13:25;;;;;;;9.00;6.53;;;16.10;96.70;;;;;;5063208;28;20418;-82
2022/05/05 07:15:53;;;;;;;7.72;6.35;;;16.20;96.70;;;;;;5048715;28;20045;-82
2022/05/05 07:18:21;;;;;;;7.35;6.40;;;16.30;96.70;;;;;;5057442;28;20041;-82
2022/05/05 07:20:50;;;;;;;6.72;6.00;;;16.40;96.70;;;;;;5065577;28;20050;-82
2022/05/05 07:23:18;;;;;;;7.38;6.35;;;16.30;96.70;;;;;;5063789;28;20068;-81
2022/05/05 07:25:46;;;;;;;9.10;7.38;;;16.30;96.70;;;;;;5048921;28;20052;-81
2022/05/05 07:28:15;;;;;;;9.05;7.30;;;16.40;96.70;;;;;;5051448;28;20174;-83
2022/05/05 07:30:45;;;;;;;8.20;7.25;;;16.40;96.70;;;;;;5064136;28;20066;-82
2022/05/05 07:33:14;;;;;;;10.55;7.40;;;16.50;96.70;;;;;;5064969;28;20040;-83
2022/05/05 07:35:42;;;;;;;8.75;7.22;;;16.50;96.70;;;;;;5048662;28;20053;-83
2022/05/05 07:38:10;;;;;;;7.72;6.60;;;16.50;96.70;;;;;;5062236;28;20178;-83
2022/05/05 07:40:38;;;;;;;8.35;6.47;;;16.50;96.70;;;;;;5044229;28;20048;-83
2022/05/05 07:43:07;;;;;;;7.32;6.63;;;16.60;96.70;;;;;;5066708;28;20534;-83
2022/05/05 07:45:35;;;;;;;9.00;6.57;;;16.60;96.70;;;;;;5057837;28;20048;-83
2022/05/05 07:48:06;;;;;;;8.07;6.32;;;16.60;96.70;;;;;;5047845;28;20037;-83
2022/05/05 07:50:34;;;;;;;10.90;7.15;;;16.60;96.70;;;;;;5047552;28;20044;-83
2022/05/05 07:53:03;;;;;;;11.38;6.70;;;16.70;96.70;;;;;;5064935;28;20531;-83
2022/05/05 07:55:31;;;;;;;7.05;6.28;;;16.70;96.70;;;;;;5058312;28;20049;-82
2022/05/05 07:57:59;;;;;;;9.00;6.50;;;16.70;96.70;;;;;;5049101;28;20506;-83
2022/05/05 08:00:28;;;;;;;11.55;7.32;;;16.70;96.70;;;;;;5066802;28;20044;-83
2022/05/05 08:02:56;;;;;;;9.20;7.40;;;16.70;96.70;;;;;;5042728;28;20045;-83
2022/05/05 08:05:25;;;;;;;10.40;7.00;;;16.70;96.70;;;;;;5063905;28;20036;-83
2022/05/05 08:07:54;;;;;;;10.25;7.07;;;16.70;96.70;;;;;;5067874;28;20072;-82
2022/05/05 08:10:22;;;;;;;8.85;7.68;;;16.80;96.70;;;;;;5043617;28;20125;-82
2022/05/05 08:12:50;;;;;;;8.40;6.95;;;16.70;96.70;;;;;;5050582;28;20136;-83
2022/05/05 08:15:19;;;;;;;8.02;7.15;;;16.70;96.70;;;;;;5062901;28;20439;-83
2022/05/05 08:17:48;;;;;;;10.05;6.68;;;16.80;96.70;;;;;;5040028;28;20120;-83
2022/05/05 08:20:16;;;;;;;9.93;6.72;;;16.80;96.70;;;;;;5051157;28;20068;-84
2022/05/05 08:22:46;;;;;;;9.88;6.97;;;16.80;96.70;;;;;;5066610;28;20044;-83
2022/05/05 08:30:48;;;;;;;7.15;6.45;;;16.90;96.70;;;;;;5061966;28;20048;-83
2022/05/05 08:33:16;;;;;;;7.65;6.80;;;16.80;96.70;;;;;;5045973;28;20040;-83
2022/05/05 08:35:57;;;;;;;8.10;6.78;;;16.90;96.70;;;;;;5059260;28;20140;-83
2022/05/05 08:38:31;;;;;;;8.05;7.10;;;16.90;96.70;;;;;;5065532;28;20091;-83
2022/05/05 08:40:59;;;;;;;10.93;6.53;;;16.90;96.70;;;;;;5065954;28;20236;-83
2022/05/05 08:43:28;;;;;;;8.98;7.25;;;16.90;96.70;;;;;;5059846;28;20872;-82
2022/05/05 08:46:23;;;;;;;9.52;8.02;;;17.00;96.70;;;;;;5066589;28;20048;-83
2022/05/05 08:48:55;;;;;;;12.90;7.95;;;17.00;96.70;;;;;;5058563;28;20276;-82
2022/05/05 08:51:25;;;;;;;9.48;7.82;;;17.00;96.70;;;;;;5040757;28;20056;-82
2022/05/05 08:53:56;;;;;;;9.43;8.27;;;16.90;96.70;;;;;;5059995;28;20052;-82
2022/05/05 08:56:25;;;;;;;10.27;8.93;;;17.00;96.70;;;;;;5045174;28;20048;-82
2022/05/05 08:58:53;;;;;;;10.30;7.72;;;17.00;96.70;;;;;;5068068;28;20044;-84
2022/05/05 09:01:21;;;;;;;10.82;8.70;;;17.10;96.70;;;;;;5056343;28;20099;-83
2022/05/05 09:03:49;;;;;;;10.20;8.27;;;17.10;96.70;;;;;;5058755;28;20524;-84
2022/05/05 09:06:17;;;;;;;11.63;8.43;;;17.10;96.70;;;;;;5064722;28;20044;-83
2022/05/05 09:08:52;;;;;;;12.70;8.18;;;17.00;96.70;;;;;;5067140;28;20041;-83
2022/05/05 09:11:23;;;;;;;10.43;9.30;;;17.10;96.70;;;;;;5064251;28;20516;-83
2022/05/05 09:13:51;;;;;;;10.32;8.90;;;17.10;96.70;;;;;;5049844;28;20074;-82
2022/05/05 09:16:26;;;;;;;10.30;8.15;;;17.10;96.70;;;;;;5062327;28;20571;-84
2022/05/05 09:18:54;;;;;;;11.70;8.80;;;17.10;96.70;;;;;;5059535;28;20048;-83
2022/05/05 09:21:38;;;;;;;11.75;9.70;;;17.10;96.70;;;;;;5057938;28;20040;-83
2022/05/05 09:24:43;;;;;;;10.65;8.95;;;17.10;96.70;;;;;;5061627;28;20091;-84
2022/05/05 09:27:15;;;;;;;;;;;17.10;96.70;;;;;;5055261;28;20709;-84
2022/05/05 09:30:01;;;;;;;9.95;8.80;;;17.20;96.70;;;;;;5041890;28;20054;-84
2022/05/05 09:32:33;;;;;;;12.23;9.05;;;17.10;96.70;;;;;;5049114;28;20518;-84
2022/05/05 09:35:10;;;;;;;14.48;8.98;;;17.20;96.70;;;;;;5066088;28;20139;-84
2022/05/05 09:37:44;;;;;;;12.40;9.95;;;17.10;96.70;;;;;;5061162;28;20040;-83
2022/05/05 09:40:17;;;;;;;12.25;9.52;;;17.10;96.70;;;;;;5066101;28;20072;-84
2022/05/05 09:42:49;;;;;;;11.20;8.70;;;17.10;96.70;;;;;;5067284;28;20044;-84
2022/05/05 09:45:20;;;;;;;9.63;7.50;;;17.20;96.70;;;;;;5064217;28;20057;-84
2022/05/05 09:47:52;;;;;;;8.32;6.32;;;17.30;96.70;;;;;;5050389;28;20159;-84
2022/05/05 09:50:22;;;;;;;8.10;6.20;;;17.40;96.70;;;;;;5060641;28;20048;-84
2022/05/05 09:58:52;;;;;;;6.13;5.53;;;17.40;96.70;;;;;;5061558;28;20041;-84
2022/05/05 10:01:25;;;;;;;7.50;6.22;;;17.40;96.70;;;;;;5058417;28;20068;-84
2022/05/05 10:04:00;;;;;;;8.20;6.10;;;17.40;96.70;;;;;;5057566;28;20045;-82
2022/05/05 10:06:30;;;;;;;7.50;5.82;;;17.40;96.70;;;;;;5058918;28;20051;-82
2022/05/05 10:09:02;;;;;;;7.95;6.20;;;17.40;96.70;;;;;;5047537;28;20036;-84
2022/05/05 10:11:30;;;;;;;6.57;5.90;;;17.50;96.70;;;;;;5066501;28;20053;-84
2022/05/05 10:14:07;;;;;;;8.55;6.47;;;17.50;96.70;;;;;;5061029;28;20072;-84
2022/05/05 10:16:37;;;;;;;6.72;6.03;;;17.50;96.70;;;;;;5065470;28;20044;-84
2022/05/05 10:19:15;;;;;;;8.02;7.13;;;17.50;96.70;;;;;;5056063;28;20132;-84
2022/05/05 10:21:51;;;;;;;9.38;7.28;;;17.50;96.70;;;;;;5050723;28;20049;-84
2022/05/05 10:24:40;;;;;;;8.73;7.38;;;17.50;96.70;;;;;;5063419;28;20040;-83
2022/05/05 10:27:10;;;;;;;11.80;8.00;;;17.50;96.70;;;;;;5062382;28;20044;-84
2022/05/05 10:29:43;;;;;;;11.52;8.43;;;17.40;96.70;;;;;;5044706;28;20125;-85
2022/05/05 10:32:13;;;;;;;9.25;7.30;;;17.40;96.70;;;;;;5065823;28;20055;-84
2022/05/05 10:34:42;;;;;;;8.90;6.80;;;17.40;96.70;;;;;;5049483;28;21066;-83
2022/05/05 10:37:12;;;;;;;8.95;7.18;;;17.40;96.70;;;;;;5042579;28;20092;-84
2022/05/05 10:39:43;;;;;;;7.78;6.97;;;17.40;96.70;;;;;;5051438;28;20037;-84
2022/05/05 10:42:14;;;;;;;9.27;7.35;;;17.30;96.70;;;;;;5048089;28;20059;-83
2022/05/05 10:45:12;;;;;;;8.60;7.70;;;17.30;96.70;;;;;;5059863;28;20139;-83
2022/05/05 10:48:08;;;;;;;8.15;7.07;;;17.30;96.70;;;;;;5061654;28;20090;-84
2022/05/05 10:50:39;;;;;;;10.27;8.75;;;17.40;96.70;;;;;;5067034;28;20052;-81
2022/05/05 10:53:23;;;;;;;8.88;7.97;;;17.40;96.70;;;;;;5056032;28;20045;-81
2022/05/05 10:55:51;;;;;;;8.77;7.88;;;17.40;96.70;;;;;;5050934;28;20071;-82
2022/05/05 10:58:58;;;;;;;10.07;7.88;;;17.40;96.70;;;;;;5050843;28;20125;-83
2022/05/05 11:01:33;;;;;;;8.95;8.05;;;17.50;96.70;;;;;;5068704;28;20044;-82
2022/05/05 11:04:25;;;;;;;11.38;8.15;;;17.50;96.70;;;;;;5058091;28;20064;-80
2022/05/05 11:07:23;;;;;;;9.20;8.20;;;17.60;96.70;;;;;;5061927;28;20037;-81
2022/05/05 11:09:52;;;;;;;9.77;8.38;;;17.60;96.70;;;;;;5053782;28;20045;-84
2022/05/05 11:12:22;;;;;;;9.60;8.60;;;17.60;96.70;;;;;;5060046;28;20045;-82
2022/05/05 11:23:47;;;;;;;9.75;7.57;;;17.70;96.70;;;;;;5065230;28;20056;-81
2022/05/05 11:26:17;;;;;;;9.10;7.72;;;17.60;96.70;;;;;;5058563;28;20052;-82
2022/05/05 11:28:47;;;;;;;8.65;7.75;;;17.60;96.70;;;;;;5047920;28;20040;-80
2022/05/05 11:31:20;;;;;;;8.10;6.50;;;17.70;96.70;;;;;;5062699;28;20067;-81
2022/05/05 11:33:53;;;;;;;7.50;6.65;;;17.60;96.70;;;;;;5050231;28;20086;-81
2022/05/05 11:36:26;;;;;;;8.25;6.65;;;17.60;96.70;;;;;;5044916;28;20947;-81
2022/05/05 11:38:54;;;;;;;12.00;7.53;;;17.80;96.70;;;;;;5065477;28;20521;-82
2022/05/05 11:41:55;;;;;;;7.22;6.55;;;17.90;96.70;;;;;;5048269;28;20058;-81
2022/05/05 11:44:24;;;;;;;7.78;6.63;;;18.00;96.70;;;;;;5060469;28;20061;-80
2022/05/05 11:46:57;;;;;;;6.63;5.72;;;18.20;96.70;;;;;;5046445;28;20594;-82
2022/05/05 11:49:33;;;;;;;7.97;6.38;;;18.30;96.70;;;;;;5055705;28;20052;-82
2022/05/05 11:52:01;;;;;;;6.53;5.82;;;18.40;96.70;;;;;;5057119;28;20063;-82
2022/05/05 11:54:39;;;;;;;7.00;6.18;;;18.40;96.70;;;;;;5047321;28;20075;-83
2022/05/05 11:57:08;;;;;;;7.70;5.97;;;18.50;96.70;;;;;;5060614;28;20053;-84
2022/05/05 12:02:25;;;;;;;5.90;5.30;;;18.70;96.70;;;;;;5063978;28;20045;-80
2022/05/05 12:04:56;;;;;;;7.00;6.30;;;18.90;96.70;;;;;;5048240;28;20049;-81
2022/05/05 12:07:26;;;;;;;6.45;5.82;;;19.00;96.70;;;;;;5060193;28;20037;-81
2022/05/05 12:09:55;;;;;;;11.48;9.52;;;19.00;96.70;;;;;;5062166;28;20040;-84
2022/05/05 12:12:26;;;;;;;11.80;10.43;;;18.90;96.70;;;;;;5056365;28;20060;-84
2022/05/05 12:14:57;;;;;;;13.52;11.63;;;18.90;96.70;;;;;;5059593;28;20063;-82
2022/05/05 12:17:47;;;;;;;14.82;12.13;;;18.90;96.70;;;;;;5062088;28;20072;-82
2022/05/05 12:20:19;;;;;;;15.55;12.50;;;18.80;96.70;;;;;;5043209;28;20048;-77
2022/05/05 12:22:55;;;;;;;14.73;13.00;;;18.80;96.70;;;;;;5053914;28;20060;-79
2022/05/05 12:25:24;;;;;;;14.13;12.50;;;18.70;96.70;;;;;;5045184;28;20049;-84
2022/05/05 12:28:04;;;;;;;17.90;13.35;;;18.70;96.70;;;;;;5063491;28;20106;-80
2022/05/05 12:30:34;;;;;;;14.60;12.38;;;18.70;96.70;;;;;;5033048;28;20045;-83
2022/05/05 12:33:03;;;;;;;15.02;13.27;;;18.70;96.70;;;;;;5041310;28;20053;-82
2022/05/05 12:35:38;;;;;;;15.00;13.40;;;18.90;96.70;;;;;;5047925;28;20044;-82
2022/05/05 12:38:08;;;;;;;15.50;12.13;;;18.90;96.70;;;;;;5055073;28;20514;-83
2022/05/05 12:40:37;;;;;;;12.30;10.65;;;19.00;96.70;;;;;;5037746;28;20095;-83
2022/05/05 12:43:06;;;;;;;11.93;10.73;;;19.00;96.70;;;;;;5058503;28;20049;-83
2022/05/05 12:45:35;;;;;;;18.73;8.80;;;19.10;96.70;;;;;;5056542;28;20048;-82
2022/05/05 12:48:06;;;;;;;21.95;8.15;;;19.20;96.70;;;;;;5063451;28;20090;-82
2022/05/05 12:50:38;;;;;;;8.25;7.25;;;19.20;96.70;;;;;;5064530;28;20697;-83
2022/05/05 13:01:54;;;;;;;8.73;6.65;;;19.20;96.70;;;;;;5062669;28;20047;-84
2022/05/05 13:04:23;;;;;;;6.82;6.22;;;19.10;96.70;;;;;;5048010;28;20561;-84
2022/05/05 13:06:52;;;;;;;8.10;6.07;;;19.10;96.70;;;;;;5065763;28;20045;-84
2022/05/05 13:09:21;;;;;;;7.47;6.55;;;19.20;96.70;;;;;;5046854;28;20076;-84
2022/05/05 13:11:52;;;;;;;7.63;6.93;;;19.20;96.70;;;;;;5049994;28;20534;-84
2022/05/05 13:14:21;;;;;;;8.25;7.20;;;19.20;96.70;;;;;;5046842;28;20033;-85
2022/05/05 13:16:50;;;;;;;7.85;6.70;;;19.20;96.70;;;;;;5061903;28;20079;-84
2022/05/05 13:19:18;;;;;;;8.68;7.38;;;19.10;96.70;;;;;;5050436;28;20040;-84
2022/05/05 13:21:46;;;;;;;7.53;6.82;;;19.10;96.70;;;;;;5062091;28;20044;-85
2022/05/05 13:24:15;;;;;;;9.70;7.40;;;19.10;96.70;;;;;;5057205;28;20045;-84
2022/05/05 13:26:45;;;;;;;9.10;8.20;;;19.10;96.70;;;;;;5059412;28;20071;-84
2022/05/05 13:29:13;;;;;;;12.52;8.15;;;19.00;96.70;;;;;;5049749;28;20059;-84
2022/05/05 13:31:41;;;;;;;8.88;7.97;;;18.90;96.70;;;;;;5039656;28;20041;-85
2022/05/05 13:34:09;;;;;;;9.90;8.90;;;18.90;96.70;;;;;;5056127;28;20090;-84
2022/05/05 13:36:38;;;;;;;9.60;8.65;;;18.90;96.70;;;;;;5059738;28;20124;-85
2022/05/05 13:39:14;;;;;;;9.32;8.43;;;18.80;96.70;;;;;;5063987;28;20045;-85
2022/05/05 13:41:43;;;;;;;9.65;8.43;;;18.80;96.70;;;;;;5061830;28;20514;-84
2022/05/05 13:44:11;;;;;;;9.85;8.85;;;18.70;96.70;;;;;;5066101;28;20097;-85
2022/05/05 13:46:40;;;;;;;11.52;8.25;;;18.70;96.70;;;;;;5044307;28;20049;-85
2022/05/05 13:49:08;;;;;;;9.85;8.70;;;18.60;96.70;;;;;;5055071;28;20048;-85
2022/05/05 13:51:37;;;;;;;10.73;7.88;;;18.60;96.70;;;;;;5041657;28;20103;-85